sensor_id;sensor_type;location;lat;lon;timestamp;P1;durP1;ratioP1;P2;durP2;ratioP2
19560;SDS011;9927;47.792;10.616;2023-01-26T04:01:59;15.30;;;11.80;;
19560;SDS011;9927;47.792;10.616;2023-01-26T04:04:46;15.33;;;11.33;;
19560;SDS011;9927;47.792;10.616;2023-01-26T04:07:31;19.27;;;12.20;;
19560;SDS011;9927;47.792;10.616;2023-01-26T04:10:17;19.50;;;12.73;;
19560;SDS011;9927;47.792;10.616;2023-01-26T04:12:44;17.73;;;12.60;;
19560;SDS011;9927;47.792;10.616;2023-01-26T04:15:30;16.93;;;12.20;;
19560;SDS011;9927;47.792;10.616;2023-01-26T04:18:16;21.27;;;13.23;;
19560;SDS011;9927;47.792;10.616;2023-01-26T04:21:02;18.93;;;13.17;;
19560;SDS011;9927;47.792;10.616;2023-01-26T04:23:49;16.10;;;11.67;;
19560;SDS011;9927;47.792;10.616;2023-01-26T04:26:18;17.70;;;12.07;;
19560;SDS011;9927;47.792;10.616;2023-01-26T04:28:45;16.10;;;11.77;;
19560;SDS011;9927;47.792;10.616;2023-01-26T04:31:12;17.33;;;12.03;;
19560;SDS011;9927;47.792;10.616;2023-01-26T04:33:42;16.27;;;11.97;;
19560;SDS011;9927;47.792;10.616;2023-01-26T04:36:09;18.33;;;12.17;;
19560;SDS011;9927;47.792;10.616;2023-01-26T04:38:37;19.50;;;13.00;;
19560;SDS011;9927;47.792;10.616;2023-01-26T04:41:04;17.57;;;11.93;;
19560;SDS011;9927;47.792;10.616;2023-01-26T04:43:31;15.47;;;11.40;;
19560;SDS011;9927;47.792;10.616;2023-01-26T04:45:59;18.03;;;12.40;;
19560;SDS011;9927;47.792;10.616;2023-01-26T04:48:28;15.87;;;11.30;;
19560;SDS011;9927;47.792;10.616;2023-01-26T04:50:57;18.77;;;12.77;;
19560;SDS011;9927;47.792;10.616;2023-01-26T04:53:26;15.87;;;11.50;;
19560;SDS011;9927;47.792;10.616;2023-01-26T04:55:54;17.43;;;11.87;;
19560;SDS011;9927;47.792;10.616;2023-01-26T04:58:21;19.47;;;12.57;;
19560;SDS011;9927;47.792;10.616;2023-01-26T05:00:50;17.93;;;12.47;;
19560;SDS011;9927;47.792;10.616;2023-01-26T05:03:18;19.03;;;13.17;;
19560;SDS011;9927;47.792;10.616;2023-01-26T05:05:48;18.00;;;12.73;;
19560;SDS011;9927;47.792;10.616;2023-01-26T05:08:18;16.43;;;12.00;;
19560;SDS011;9927;47.792;10.616;2023-01-26T05:10:46;14.80;;;11.27;;
19560;SDS011;9927;47.792;10.616;2023-01-26T05:13:14;19.23;;;11.90;;
19560;SDS011;9927;47.792;10.616;2023-01-26T05:15:41;17.83;;;11.63;;
19560;SDS011;9927;47.792;10.616;2023-01-26T05:18:08;16.57;;;11.77;;
19560;SDS011;9927;47.792;10.616;2023-01-26T05:20:36;23.13;;;12.30;;
19560;SDS011;9927;47.792;10.616;2023-01-26T05:23:03;16.10;;;11.40;;
19560;SDS011;9927;47.792;10.616;2023-01-26T05:25:30;15.63;;;11.30;;
19560;SDS011;9927;47.792;10.616;2023-01-26T05:27:58;15.87;;;11.83;;
19560;SDS011;9927;47.792;10.616;2023-01-26T05:30:25;15.67;;;11.50;;
19560;SDS011;9927;47.792;10.616;2023-01-26T05:32:53;17.10;;;11.50;;
19560;SDS011;9927;47.792;10.616;2023-01-26T05:35:25;17.33;;;11.07;;
19560;SDS011;9927;47.792;10.616;2023-01-26T05:37:53;16.33;;;11.83;;
19560;SDS011;9927;47.792;10.616;2023-01-26T05:40:21;17.60;;;11.80;;
19560;SDS011;9927;47.792;10.616;2023-01-26T05:42:48;16.80;;;11.60;;
19560;SDS011;9927;47.792;10.616;2023-01-26T05:45:16;18.60;;;12.67;;
19560;SDS011;9927;47.792;10.616;2023-01-26T05:47:44;18.07;;;11.50;;
19560;SDS011;9927;47.792;10.616;2023-01-26T05:50:12;19.57;;;12.20;;
19560;SDS011;9927;47.792;10.616;2023-01-26T05:52:40;17.27;;;12.47;;
19560;SDS011;9927;47.792;10.616;2023-01-26T05:55:08;24.33;;;14.10;;
19560;SDS011;9927;47.792;10.616;2023-01-26T05:57:35;19.63;;;13.00;;
19560;SDS011;9927;47.792;10.616;2023-01-26T06:00:03;20.87;;;12.87;;
19560;SDS011;9927;47.792;10.616;2023-01-26T06:02:31;21.73;;;13.90;;
19560;SDS011;9927;47.792;10.616;2023-01-26T06:04:59;25.23;;;15.23;;
19560;SDS011;9927;47.792;10.616;2023-01-26T06:07:26;20.17;;;13.70;;
19560;SDS011;9927;47.792;10.616;2023-01-26T06:09:53;23.27;;;14.03;;
19560;SDS011;9927;47.792;10.616;2023-01-26T06:12:20;24.07;;;13.50;;
19560;SDS011;9927;47.792;10.616;2023-01-26T06:14:48;22.13;;;14.83;;
19560;SDS011;9927;47.792;10.616;2023-01-26T06:17:16;25.50;;;14.53;;
19560;SDS011;9927;47.792;10.616;2023-01-26T06:19:43;28.07;;;15.07;;
19560;SDS011;9927;47.792;10.616;2023-01-26T06:22:11;20.33;;;13.37;;
19560;SDS011;9927;47.792;10.616;2023-01-26T06:24:39;19.87;;;12.60;;
19560;SDS011;9927;47.792;10.616;2023-01-26T06:27:07;21.10;;;13.63;;
19560;SDS011;9927;47.792;10.616;2023-01-26T06:29:41;21.20;;;13.37;;
19560;SDS011;9927;47.792;10.616;2023-01-26T06:32:10;20.97;;;13.53;;
19560;SDS011;9927;47.792;10.616;2023-01-26T06:34:38;21.63;;;14.23;;
19560;SDS011;9927;47.792;10.616;2023-01-26T06:37:06;20.97;;;12.97;;
19560;SDS011;9927;47.792;10.616;2023-01-26T06:39:33;21.43;;;13.63;;
19560;SDS011;9927;47.792;10.616;2023-01-26T06:42:00;20.23;;;13.67;;
19560;SDS011;9927;47.792;10.616;2023-01-26T06:44:28;19.73;;;13.10;;
19560;SDS011;9927;47.792;10.616;2023-01-26T06:46:55;24.03;;;13.53;;
19560;SDS011;9927;47.792;10.616;2023-01-26T06:49:24;19.83;;;13.82;;
19560;SDS011;9927;47.792;10.616;2023-01-26T06:51:53;22.43;;;13.47;;
19560;SDS011;9927;47.792;10.616;2023-01-26T06:54:24;23.97;;;14.37;;
19560;SDS011;9927;47.792;10.616;2023-01-26T06:56:51;22.07;;;13.87;;
19560;SDS011;9927;47.792;10.616;2023-01-26T06:59:18;20.97;;;13.83;;
19560;SDS011;9927;47.792;10.616;2023-01-26T07:01:46;20.40;;;12.80;;
19560;SDS011;9927;47.792;10.616;2023-01-26T07:04:14;23.10;;;13.43;;
19560;SDS011;9927;47.792;10.616;2023-01-26T07:06:42;24.00;;;14.80;;
19560;SDS011;9927;47.792;10.616;2023-01-26T07:09:10;22.37;;;14.20;;
19560;SDS011;9927;47.792;10.616;2023-01-26T07:11:37;21.87;;;13.43;;
19560;SDS011;9927;47.792;10.616;2023-01-26T07:14:05;20.63;;;14.53;;
19560;SDS011;9927;47.792;10.616;2023-01-26T07:16:32;20.90;;;14.07;;
19560;SDS011;9927;47.792;10.616;2023-01-26T07:18:59;20.00;;;13.40;;
19560;SDS011;9927;47.792;10.616;2023-01-26T07:21:27;24.33;;;14.37;;
19560;SDS011;9927;47.792;10.616;2023-01-26T07:23:54;24.00;;;14.50;;
19560;SDS011;9927;47.792;10.616;2023-01-26T07:26:22;23.67;;;14.60;;
19560;SDS011;9927;47.792;10.616;2023-01-26T07:28:49;20.73;;;13.60;;
19560;SDS011;9927;47.792;10.616;2023-01-26T07:31:16;18.87;;;12.87;;
19560;SDS011;9927;47.792;10.616;2023-01-26T07:33:44;21.40;;;14.30;;
19560;SDS011;9927;47.792;10.616;2023-01-26T07:36:11;25.23;;;14.33;;
19560;SDS011;9927;47.792;10.616;2023-01-26T07:38:38;22.83;;;14.67;;
19560;SDS011;9927;47.792;10.616;2023-01-26T07:41:07;23.10;;;15.10;;
19560;SDS011;9927;47.792;10.616;2023-01-26T07:43:37;25.40;;;14.63;;
19560;SDS011;9927;47.792;10.616;2023-01-26T07:46:05;22.77;;;14.77;;
19560;SDS011;9927;47.792;10.616;2023-01-26T07:48:32;26.10;;;14.37;;
19560;SDS011;9927;47.792;10.616;2023-01-26T07:51:01;23.97;;;14.93;;
19560;SDS011;9927;47.792;10.616;2023-01-26T07:53:30;23.93;;;14.93;;
19560;SDS011;9927;47.792;10.616;2023-01-26T07:56:10;27.57;;;17.10;;
19560;SDS011;9927;47.792;10.616;2023-01-26T07:58:39;31.30;;;17.53;;
19560;SDS011;9927;47.792;10.616;2023-01-26T08:01:07;29.33;;;16.60;;
19560;SDS011;9927;47.792;10.616;2023-01-26T08:03:39;26.13;;;15.37;;
19560;SDS011;9927;47.792;10.616;2023-01-26T08:06:07;31.30;;;17.30;;
19560;SDS011;9927;47.792;10.616;2023-01-26T08:08:39;25.77;;;15.67;;
19560;SDS011;9927;47.792;10.616;2023-01-26T08:11:07;24.07;;;15.33;;
19560;SDS011;9927;47.792;10.616;2023-01-26T08:13:36;23.13;;;14.50;;
19560;SDS011;9927;47.792;10.616;2023-01-26T08:16:04;25.50;;;15.13;;
19560;SDS011;9927;47.792;10.616;2023-01-26T08:18:35;25.93;;;15.33;;
19560;SDS011;9927;47.792;10.616;2023-01-26T08:21:02;25.77;;;15.13;;
19560;SDS011;9927;47.792;10.616;2023-01-26T08:23:30;26.40;;;15.33;;
19560;SDS011;9927;47.792;10.616;2023-01-26T08:26:00;22.53;;;14.70;;
19560;SDS011;9927;47.792;10.616;2023-01-26T08:28:29;24.60;;;15.00;;
19560;SDS011;9927;47.792;10.616;2023-01-26T08:31:02;22.50;;;13.50;;
19560;SDS011;9927;47.792;10.616;2023-01-26T08:33:31;22.67;;;14.63;;
19560;SDS011;9927;47.792;10.616;2023-01-26T08:36:02;25.03;;;14.00;;
19560;SDS011;9927;47.792;10.616;2023-01-26T08:38:30;19.93;;;13.30;;
19560;SDS011;9927;47.792;10.616;2023-01-26T08:41:02;162.13;;;20.80;;
19560;SDS011;9927;47.792;10.616;2023-01-26T08:43:41;24.60;;;14.37;;
19560;SDS011;9927;47.792;10.616;2023-01-26T08:46:14;22.07;;;14.37;;
19560;SDS011;9927;47.792;10.616;2023-01-26T08:48:41;22.20;;;13.53;;
19560;SDS011;9927;47.792;10.616;2023-01-26T08:51:09;22.80;;;13.10;;
19560;SDS011;9927;47.792;10.616;2023-01-26T08:53:36;19.87;;;13.27;;
19560;SDS011;9927;47.792;10.616;2023-01-26T08:56:04;19.33;;;13.70;;
19560;SDS011;9927;47.792;10.616;2023-01-26T08:58:33;19.37;;;13.07;;
19560;SDS011;9927;47.792;10.616;2023-01-26T09:01:04;19.87;;;12.73;;
19560;SDS011;9927;47.792;10.616;2023-01-26T09:03:32;22.53;;;13.53;;
19560;SDS011;9927;47.792;10.616;2023-01-26T09:05:59;19.27;;;13.40;;
19560;SDS011;9927;47.792;10.616;2023-01-26T09:08:28;18.33;;;12.23;;
19560;SDS011;9927;47.792;10.616;2023-01-26T09:10:55;18.90;;;13.20;;
19560;SDS011;9927;47.792;10.616;2023-01-26T09:13:23;19.07;;;12.63;;
19560;SDS011;9927;47.792;10.616;2023-01-26T09:15:50;17.57;;;11.70;;
19560;SDS011;9927;47.792;10.616;2023-01-26T09:18:18;16.50;;;11.30;;
19560;SDS011;9927;47.792;10.616;2023-01-26T09:20:45;59.03;;;13.73;;
19560;SDS011;9927;47.792;10.616;2023-01-26T09:23:12;16.97;;;11.37;;
19560;SDS011;9927;47.792;10.616;2023-01-26T09:25:41;17.50;;;12.00;;
19560;SDS011;9927;47.792;10.616;2023-01-26T09:28:09;17.60;;;12.13;;
19560;SDS011;9927;47.792;10.616;2023-01-26T09:30:36;48.10;;;12.80;;
19560;SDS011;9927;47.792;10.616;2023-01-26T09:33:03;16.43;;;12.10;;
19560;SDS011;9927;47.792;10.616;2023-01-26T09:35:32;19.73;;;11.83;;
19560;SDS011;9927;47.792;10.616;2023-01-26T09:37:59;18.33;;;12.13;;
19560;SDS011;9927;47.792;10.616;2023-01-26T09:40:34;15.23;;;11.23;;
19560;SDS011;9927;47.792;10.616;2023-01-26T09:43:28;16.27;;;10.97;;
19560;SDS011;9927;47.792;10.616;2023-01-26T09:51:28;13.77;;;10.60;;
19560;SDS011;9927;47.792;10.616;2023-01-26T09:57:16;15.13;;;10.80;;
19560;SDS011;9927;47.792;10.616;2023-01-26T10:05:32;14.30;;;10.03;;
19560;SDS011;9927;47.792;10.616;2023-01-26T10:08:21;12.40;;;9.80;;
19560;SDS011;9927;47.792;10.616;2023-01-26T10:10:52;15.03;;;10.70;;
19560;SDS011;9927;47.792;10.616;2023-01-26T10:13:21;15.27;;;9.93;;
19560;SDS011;9927;47.792;10.616;2023-01-26T10:15:53;12.43;;;9.70;;
19560;SDS011;9927;47.792;10.616;2023-01-26T10:18:38;15.47;;;11.00;;
19560;SDS011;9927;47.792;10.616;2023-01-26T10:21:31;13.83;;;10.37;;
19560;SDS011;9927;47.792;10.616;2023-01-26T10:24:03;14.53;;;9.73;;
19560;SDS011;9927;47.792;10.616;2023-01-26T10:26:32;14.23;;;10.33;;
19560;SDS011;9927;47.792;10.616;2023-01-26T10:28:59;14.87;;;9.93;;
19560;SDS011;9927;47.792;10.616;2023-01-26T10:31:28;13.17;;;10.40;;
19560;SDS011;9927;47.792;10.616;2023-01-26T10:34:08;14.10;;;10.10;;
19560;SDS011;9927;47.792;10.616;2023-01-26T10:36:40;16.43;;;11.07;;
19560;SDS011;9927;47.792;10.616;2023-01-26T10:39:10;15.73;;;11.10;;
19560;SDS011;9927;47.792;10.616;2023-01-26T10:44:33;13.80;;;10.93;;
19560;SDS011;9927;47.792;10.616;2023-01-26T10:49:42;15.10;;;10.50;;
19560;SDS011;9927;47.792;10.616;2023-01-26T10:52:19;12.47;;;9.40;;
19560;SDS011;9927;47.792;10.616;2023-01-26T10:55:10;14.60;;;10.23;;
19560;SDS011;9927;47.792;10.616;2023-01-26T10:57:40;15.30;;;10.43;;
19560;SDS011;9927;47.792;10.616;2023-01-26T11:00:30;12.47;;;10.00;;
19560;SDS011;9927;47.792;10.616;2023-01-26T11:05:39;12.53;;;10.27;;
19560;SDS011;9927;47.792;10.616;2023-01-26T11:08:29;13.10;;;10.17;;
19560;SDS011;9927;47.792;10.616;2023-01-26T11:14:09;12.77;;;10.83;;
19560;SDS011;9927;47.792;10.616;2023-01-26T11:16:45;15.17;;;11.63;;
19560;SDS011;9927;47.792;10.616;2023-01-26T11:19:20;16.53;;;11.17;;
19560;SDS011;9927;47.792;10.616;2023-01-26T11:22:07;13.47;;;9.77;;
19560;SDS011;9927;47.792;10.616;2023-01-26T11:25:17;13.30;;;10.10;;
19560;SDS011;9927;47.792;10.616;2023-01-26T11:33:28;13.13;;;9.93;;
19560;SDS011;9927;47.792;10.616;2023-01-26T11:39:08;12.67;;;9.50;;
19560;SDS011;9927;47.792;10.616;2023-01-26T11:44:45;13.63;;;10.27;;
19560;SDS011;9927;47.792;10.616;2023-01-26T11:53:18;23.53;;;10.97;;
19560;SDS011;9927;47.792;10.616;2023-01-26T11:58:52;14.93;;;9.73;;
19560;SDS011;9927;47.792;10.616;2023-01-26T12:01:39;14.07;;;9.80;;
19560;SDS011;9927;47.792;10.616;2023-01-26T12:04:13;13.10;;;9.77;;
19560;SDS011;9927;47.792;10.616;2023-01-26T12:06:46;14.80;;;10.53;;
19560;SDS011;9927;47.792;10.616;2023-01-26T12:09:38;14.93;;;10.67;;
19560;SDS011;9927;47.792;10.616;2023-01-26T12:12:13;12.97;;;9.67;;
19560;SDS011;9927;47.792;10.616;2023-01-26T12:20:25;10.83;;;9.23;;
19560;SDS011;9927;47.792;10.616;2023-01-26T12:26:08;15.60;;;10.77;;
19560;SDS011;9927;47.792;10.616;2023-01-26T12:28:49;12.47;;;9.87;;
19560;SDS011;9927;47.792;10.616;2023-01-26T12:38:02;11.07;;;9.50;;
19560;SDS011;9927;47.792;10.616;2023-01-26T12:46:18;14.63;;;10.43;;
19560;SDS011;9927;47.792;10.616;2023-01-26T12:48:49;13.40;;;9.40;;
19560;SDS011;9927;47.792;10.616;2023-01-26T12:54:39;13.53;;;10.13;;
19560;SDS011;9927;47.792;10.616;2023-01-26T12:57:16;12.23;;;10.40;;
19560;SDS011;9927;47.792;10.616;2023-01-26T12:59:46;14.80;;;9.90;;
19560;SDS011;9927;47.792;10.616;2023-01-26T13:04:42;13.87;;;9.87;;
19560;SDS011;9927;47.792;10.616;2023-01-26T13:12:52;12.00;;;9.90;;
19560;SDS011;9927;47.792;10.616;2023-01-26T13:15:28;14.47;;;10.13;;
19560;SDS011;9927;47.792;10.616;2023-01-26T13:20:40;12.77;;;9.90;;
19560;SDS011;9927;47.792;10.616;2023-01-26T13:29:53;12.13;;;9.47;;
19560;SDS011;9927;47.792;10.616;2023-01-26T13:34:42;19.27;;;12.33;;
19560;SDS011;9927;47.792;10.616;2023-01-26T13:48:55;13.90;;;10.93;;
19560;SDS011;9927;47.792;10.616;2023-01-26T13:51:23;23.37;;;20.87;;
19560;SDS011;9927;47.792;10.616;2023-01-26T13:56:38;12.03;;;10.10;;
19560;SDS011;9927;47.792;10.616;2023-01-26T13:59:15;15.27;;;10.97;;
19560;SDS011;9927;47.792;10.616;2023-01-26T14:01:48;19.77;;;13.10;;
19560;SDS011;9927;47.792;10.616;2023-01-26T14:04:20;13.27;;;10.77;;
19560;SDS011;9927;47.792;10.616;2023-01-26T14:09:22;14.47;;;11.23;;
19560;SDS011;9927;47.792;10.616;2023-01-26T14:11:54;13.30;;;10.50;;
19560;SDS011;9927;47.792;10.616;2023-01-26T14:14:32;12.57;;;10.27;;
19560;SDS011;9927;47.792;10.616;2023-01-26T14:17:22;13.57;;;10.73;;
19560;SDS011;9927;47.792;10.616;2023-01-26T14:19:51;14.03;;;10.43;;
19560;SDS011;9927;47.792;10.616;2023-01-26T14:22:19;12.43;;;10.43;;
19560;SDS011;9927;47.792;10.616;2023-01-26T14:24:49;15.17;;;11.17;;
19560;SDS011;9927;47.792;10.616;2023-01-26T14:29:54;14.30;;;10.77;;
19560;SDS011;9927;47.792;10.616;2023-01-26T14:32:22;13.97;;;10.10;;
19560;SDS011;9927;47.792;10.616;2023-01-26T14:34:51;14.90;;;10.77;;
19560;SDS011;9927;47.792;10.616;2023-01-26T14:37:21;18.73;;;13.77;;
19560;SDS011;9927;47.792;10.616;2023-01-26T14:40:08;23.33;;;14.97;;
19560;SDS011;9927;47.792;10.616;2023-01-26T14:42:41;31.33;;;17.23;;
19560;SDS011;9927;47.792;10.616;2023-01-26T14:45:12;25.73;;;15.87;;
19560;SDS011;9927;47.792;10.616;2023-01-26T14:47:39;22.10;;;14.97;;
19560;SDS011;9927;47.792;10.616;2023-01-26T14:50:16;14.90;;;11.93;;
19560;SDS011;9927;47.792;10.616;2023-01-26T14:52:53;21.97;;;14.30;;
19560;SDS011;9927;47.792;10.616;2023-01-26T14:55:22;20.50;;;15.13;;
19560;SDS011;9927;47.792;10.616;2023-01-26T14:57:55;18.43;;;12.63;;
19560;SDS011;9927;47.792;10.616;2023-01-26T15:00:28;27.20;;;17.17;;
19560;SDS011;9927;47.792;10.616;2023-01-26T15:03:04;30.33;;;19.07;;
19560;SDS011;9927;47.792;10.616;2023-01-26T15:05:40;16.97;;;12.63;;
19560;SDS011;9927;47.792;10.616;2023-01-26T15:08:18;14.10;;;10.63;;
19560;SDS011;9927;47.792;10.616;2023-01-26T15:10:54;12.17;;;10.57;;
19560;SDS011;9927;47.792;10.616;2023-01-26T15:13:46;13.60;;;10.80;;
19560;SDS011;9927;47.792;10.616;2023-01-26T15:16:18;13.70;;;11.07;;
19560;SDS011;9927;47.792;10.616;2023-01-26T15:19:00;18.33;;;13.73;;
19560;SDS011;9927;47.792;10.616;2023-01-26T15:21:31;17.87;;;13.33;;
19560;SDS011;9927;47.792;10.616;2023-01-26T15:24:00;19.03;;;13.83;;
19560;SDS011;9927;47.792;10.616;2023-01-26T15:26:30;17.93;;;14.57;;
19560;SDS011;9927;47.792;10.616;2023-01-26T15:29:05;18.07;;;13.73;;
19560;SDS011;9927;47.792;10.616;2023-01-26T15:32:24;170.77;;;17.80;;
19560;SDS011;9927;47.792;10.616;2023-01-26T16:02:16;29.37;;;13.10;;
19560;SDS011;9927;47.792;10.616;2023-01-26T16:05:08;16.43;;;13.20;;
19560;SDS011;9927;47.792;10.616;2023-01-26T16:07:41;16.53;;;13.00;;
19560;SDS011;9927;47.792;10.616;2023-01-26T16:10:09;13.77;;;10.80;;
19560;SDS011;9927;47.792;10.616;2023-01-26T16:12:36;15.20;;;11.20;;
19560;SDS011;9927;47.792;10.616;2023-01-26T16:17:58;18.53;;;12.60;;
19560;SDS011;9927;47.792;10.616;2023-01-26T16:20:25;16.20;;;11.20;;
19560;SDS011;9927;47.792;10.616;2023-01-26T16:22:53;15.83;;;11.80;;
19560;SDS011;9927;47.792;10.616;2023-01-26T16:27:54;18.90;;;12.93;;
19560;SDS011;9927;47.792;10.616;2023-01-26T16:30:23;14.97;;;10.73;;
19560;SDS011;9927;47.792;10.616;2023-01-26T16:32:51;24.07;;;16.10;;
19560;SDS011;9927;47.792;10.616;2023-01-26T16:35:20;21.33;;;14.33;;
19560;SDS011;9927;47.792;10.616;2023-01-26T16:37:48;16.33;;;12.37;;
19560;SDS011;9927;47.792;10.616;2023-01-26T16:40:16;25.90;;;17.13;;
19560;SDS011;9927;47.792;10.616;2023-01-26T16:42:48;27.70;;;17.60;;
19560;SDS011;9927;47.792;10.616;2023-01-26T16:45:18;39.03;;;23.43;;
19560;SDS011;9927;47.792;10.616;2023-01-26T16:47:47;30.03;;;19.80;;
19560;SDS011;9927;47.792;10.616;2023-01-26T16:50:17;20.67;;;13.70;;
19560;SDS011;9927;47.792;10.616;2023-01-26T16:52:45;13.73;;;10.40;;
19560;SDS011;9927;47.792;10.616;2023-01-26T16:55:13;21.30;;;10.93;;
19560;SDS011;9927;47.792;10.616;2023-01-26T16:57:42;15.67;;;11.50;;
19560;SDS011;9927;47.792;10.616;2023-01-26T17:00:17;16.50;;;11.33;;
19560;SDS011;9927;47.792;10.616;2023-01-26T17:02:47;18.63;;;12.77;;
19560;SDS011;9927;47.792;10.616;2023-01-26T17:05:20;15.47;;;11.03;;
19560;SDS011;9927;47.792;10.616;2023-01-26T17:07:47;14.53;;;10.70;;
19560;SDS011;9927;47.792;10.616;2023-01-26T17:10:16;14.13;;;10.27;;
19560;SDS011;9927;47.792;10.616;2023-01-26T17:12:44;14.03;;;10.20;;
19560;SDS011;9927;47.792;10.616;2023-01-26T17:15:11;14.30;;;10.60;;
19560;SDS011;9927;47.792;10.616;2023-01-26T17:17:39;13.40;;;10.10;;
19560;SDS011;9927;47.792;10.616;2023-01-26T17:20:09;13.73;;;10.17;;
19560;SDS011;9927;47.792;10.616;2023-01-26T17:22:45;15.80;;;10.63;;
19560;SDS011;9927;47.792;10.616;2023-01-26T17:25:13;15.47;;;10.93;;
19560;SDS011;9927;47.792;10.616;2023-01-26T17:27:43;14.73;;;10.17;;
19560;SDS011;9927;47.792;10.616;2023-01-26T17:30:12;14.17;;;10.87;;
19560;SDS011;9927;47.792;10.616;2023-01-26T17:32:40;13.27;;;10.77;;
19560;SDS011;9927;47.792;10.616;2023-01-26T17:35:08;13.87;;;11.07;;
19560;SDS011;9927;47.792;10.616;2023-01-26T17:37:36;14.53;;;10.70;;
19560;SDS011;9927;47.792;10.616;2023-01-26T17:40:06;15.83;;;11.07;;
19560;SDS011;9927;47.792;10.616;2023-01-26T17:42:35;14.80;;;10.50;;
19560;SDS011;9927;47.792;10.616;2023-01-26T17:45:02;12.90;;;10.23;;
19560;SDS011;9927;47.792;10.616;2023-01-26T17:47:31;14.67;;;9.80;;
19560;SDS011;9927;47.792;10.616;2023-01-26T17:49:59;12.97;;;10.20;;
19560;SDS011;9927;47.792;10.616;2023-01-26T17:52:27;15.63;;;10.53;;
19560;SDS011;9927;47.792;10.616;2023-01-26T17:54:54;15.67;;;10.70;;
19560;SDS011;9927;47.792;10.616;2023-01-26T17:57:21;15.97;;;11.80;;
19560;SDS011;9927;47.792;10.616;2023-01-26T17:59:48;14.53;;;11.70;;
19560;SDS011;9927;47.792;10.616;2023-01-26T18:02:15;26.67;;;17.17;;
19560;SDS011;9927;47.792;10.616;2023-01-26T18:04:43;21.50;;;15.87;;
19560;SDS011;9927;47.792;10.616;2023-01-26T18:07:10;16.23;;;12.17;;
19560;SDS011;9927;47.792;10.616;2023-01-26T18:09:37;15.53;;;11.37;;
19560;SDS011;9927;47.792;10.616;2023-01-26T18:12:04;14.10;;;10.97;;
19560;SDS011;9927;47.792;10.616;2023-01-26T18:14:32;15.90;;;10.90;;
19560;SDS011;9927;47.792;10.616;2023-01-26T18:17:00;15.53;;;11.37;;
19560;SDS011;9927;47.792;10.616;2023-01-26T18:19:27;13.67;;;10.20;;
19560;SDS011;9927;47.792;10.616;2023-01-26T18:21:55;13.17;;;10.87;;
19560;SDS011;9927;47.792;10.616;2023-01-26T18:24:22;15.83;;;11.53;;
19560;SDS011;9927;47.792;10.616;2023-01-26T18:26:49;15.20;;;10.97;;
19560;SDS011;9927;47.792;10.616;2023-01-26T18:29:17;17.13;;;11.23;;
19560;SDS011;9927;47.792;10.616;2023-01-26T18:31:44;14.73;;;11.43;;
19560;SDS011;9927;47.792;10.616;2023-01-26T18:34:11;16.07;;;11.37;;
19560;SDS011;9927;47.792;10.616;2023-01-26T18:36:39;14.27;;;10.57;;
19560;SDS011;9927;47.792;10.616;2023-01-26T18:39:07;13.60;;;10.73;;
19560;SDS011;9927;47.792;10.616;2023-01-26T18:41:37;13.87;;;10.33;;
19560;SDS011;9927;47.792;10.616;2023-01-26T18:44:06;14.00;;;10.03;;
19560;SDS011;9927;47.792;10.616;2023-01-26T18:46:33;12.57;;;9.50;;
19560;SDS011;9927;47.792;10.616;2023-01-26T18:49:01;12.93;;;9.37;;
19560;SDS011;9927;47.792;10.616;2023-01-26T18:51:30;12.23;;;9.13;;
19560;SDS011;9927;47.792;10.616;2023-01-26T18:53:59;12.20;;;9.50;;
19560;SDS011;9927;47.792;10.616;2023-01-26T18:56:29;12.47;;;9.00;;
19560;SDS011;9927;47.792;10.616;2023-01-26T18:58:57;11.63;;;9.40;;
19560;SDS011;9927;47.792;10.616;2023-01-26T19:01:25;11.57;;;9.27;;
19560;SDS011;9927;47.792;10.616;2023-01-26T19:03:54;12.77;;;9.30;;
19560;SDS011;9927;47.792;10.616;2023-01-26T19:06:22;12.97;;;9.97;;
19560;SDS011;9927;47.792;10.616;2023-01-26T19:08:52;14.20;;;9.87;;
19560;SDS011;9927;47.792;10.616;2023-01-26T19:11:24;11.83;;;9.80;;
19560;SDS011;9927;47.792;10.616;2023-01-26T19:13:59;12.93;;;9.80;;
19560;SDS011;9927;47.792;10.616;2023-01-26T19:16:27;13.60;;;10.27;;
19560;SDS011;9927;47.792;10.616;2023-01-26T19:18:56;15.73;;;10.03;;
19560;SDS011;9927;47.792;10.616;2023-01-26T19:21:23;12.47;;;9.87;;
19560;SDS011;9927;47.792;10.616;2023-01-26T19:23:53;20.47;;;10.53;;
19560;SDS011;9927;47.792;10.616;2023-01-26T19:26:23;15.40;;;10.30;;
19560;SDS011;9927;47.792;10.616;2023-01-26T19:28:52;14.27;;;10.93;;
19560;SDS011;9927;47.792;10.616;2023-01-26T19:31:19;15.80;;;10.57;;
19560;SDS011;9927;47.792;10.616;2023-01-26T19:34:10;15.00;;;9.80;;
19560;SDS011;9927;47.792;10.616;2023-01-26T19:36:38;12.43;;;10.13;;
19560;SDS011;9927;47.792;10.616;2023-01-26T19:39:06;13.47;;;10.70;;
19560;SDS011;9927;47.792;10.616;2023-01-26T19:41:33;16.20;;;10.60;;
19560;SDS011;9927;47.792;10.616;2023-01-26T19:44:00;14.53;;;10.43;;
19560;SDS011;9927;47.792;10.616;2023-01-26T19:46:28;13.37;;;9.93;;
19560;SDS011;9927;47.792;10.616;2023-01-26T19:48:55;15.47;;;11.30;;
19560;SDS011;9927;47.792;10.616;2023-01-26T19:51:23;13.03;;;10.40;;
19560;SDS011;9927;47.792;10.616;2023-01-26T19:53:53;14.87;;;10.80;;
19560;SDS011;9927;47.792;10.616;2023-01-26T19:56:23;14.77;;;11.00;;
19560;SDS011;9927;47.792;10.616;2023-01-26T19:58:53;22.10;;;11.17;;
19560;SDS011;9927;47.792;10.616;2023-01-26T20:01:22;14.30;;;11.23;;
19560;SDS011;9927;47.792;10.616;2023-01-26T20:03:51;12.87;;;10.23;;
19560;SDS011;9927;47.792;10.616;2023-01-26T20:06:25;15.57;;;10.73;;
19560;SDS011;9927;47.792;10.616;2023-01-26T20:08:54;13.57;;;10.30;;
19560;SDS011;9927;47.792;10.616;2023-01-26T20:11:22;16.87;;;11.67;;
19560;SDS011;9927;47.792;10.616;2023-01-26T20:13:54;17.33;;;11.60;;
19560;SDS011;9927;47.792;10.616;2023-01-26T20:16:29;16.07;;;11.47;;
19560;SDS011;9927;47.792;10.616;2023-01-26T20:18:57;15.97;;;11.67;;
19560;SDS011;9927;47.792;10.616;2023-01-26T20:24:55;16.50;;;12.17;;
19560;SDS011;9927;47.792;10.616;2023-01-26T20:27:22;16.53;;;12.03;;
19560;SDS011;9927;47.792;10.616;2023-01-26T20:29:50;15.90;;;12.10;;
19560;SDS011;9927;47.792;10.616;2023-01-26T20:39:10;19.47;;;12.63;;
19560;SDS011;9927;47.792;10.616;2023-01-26T20:42:49;30.73;;;13.00;;
19560;SDS011;9927;47.792;10.616;2023-01-26T20:50:15;18.73;;;11.90;;
19560;SDS011;9927;47.792;10.616;2023-01-26T20:52:42;17.67;;;12.50;;
19560;SDS011;9927;47.792;10.616;2023-01-26T20:55:10;16.83;;;11.73;;
19560;SDS011;9927;47.792;10.616;2023-01-26T20:57:38;18.27;;;12.90;;
19560;SDS011;9927;47.792;10.616;2023-01-26T21:00:06;16.67;;;12.13;;
19560;SDS011;9927;47.792;10.616;2023-01-26T21:02:40;16.80;;;12.77;;
19560;SDS011;9927;47.792;10.616;2023-01-26T21:13:15;16.60;;;12.13;;
19560;SDS011;9927;47.792;10.616;2023-01-26T21:15:42;16.07;;;11.83;;
19560;SDS011;9927;47.792;10.616;2023-01-26T21:18:09;14.47;;;12.23;;
19560;SDS011;9927;47.792;10.616;2023-01-26T21:23:47;17.53;;;12.67;;
19560;SDS011;9927;47.792;10.616;2023-01-26T21:26:16;18.70;;;13.13;;
19560;SDS011;9927;47.792;10.616;2023-01-26T21:28:51;16.03;;;12.30;;
19560;SDS011;9927;47.792;10.616;2023-01-26T21:31:20;14.83;;;11.90;;
19560;SDS011;9927;47.792;10.616;2023-01-26T21:33:50;15.27;;;11.93;;
19560;SDS011;9927;47.792;10.616;2023-01-26T21:36:19;15.97;;;11.93;;